createdAt,value
2017-10-20T00:00:17.550Z,24.77
2017-10-20T00:02:46.098Z,25.10
2017-10-20T00:07:49.359Z,26.77
2017-10-20T00:10:17.729Z,25.23
2017-10-20T00:12:46.161Z,22.60
2017-10-20T00:15:14.653Z,22.80
2017-10-20T00:17:43.022Z,23.43
2017-10-20T00:20:12.154Z,21.33
2017-10-20T00:22:40.565Z,21.40
2017-10-20T00:25:09.002Z,21.00
2017-10-20T00:27:37.691Z,21.03
2017-10-20T00:30:06.100Z,21.57
2017-10-20T00:32:34.491Z,21.67
2017-10-20T00:35:02.895Z,23.80
2017-10-20T00:37:31.732Z,20.97
2017-10-20T00:40:00.084Z,18.97
2017-10-20T00:42:28.520Z,16.80
2017-10-20T00:44:57.083Z,19.70
2017-10-20T00:47:25.468Z,19.27
2017-10-20T00:49:53.874Z,17.53
2017-10-20T00:52:23.100Z,18.70
2017-10-20T00:54:51.507Z,18.20
2017-10-20T00:57:19.934Z,18.37
2017-10-20T00:59:49.227Z,19.87
2017-10-20T01:02:18.585Z,23.00
2017-10-20T01:04:46.972Z,20.60
2017-10-20T01:07:15.436Z,20.60
2017-10-20T01:09:43.804Z,20.40
2017-10-20T01:12:12.177Z,18.70
2017-10-20T01:14:41.079Z,20.67
2017-10-20T01:17:09.451Z,18.97
2017-10-20T01:19:37.894Z,18.60
2017-10-20T01:22:07.131Z,21.33
2017-10-20T01:24:35.570Z,19.60
2017-10-20T01:27:04.232Z,19.13
2017-10-20T01:29:33.082Z,21.93
2017-10-20T01:32:01.520Z,22.00
2017-10-20T01:34:29.933Z,22.10
2017-10-20T01:36:58.563Z,22.20
2017-10-20T01:39:27.005Z,22.27
2017-10-20T01:41:55.465Z,23.70
2017-10-20T01:44:24.100Z,24.30
2017-10-20T01:46:52.578Z,25.87
2017-10-20T01:49:20.978Z,22.40
2017-10-20T01:51:49.487Z,24.10
2017-10-20T01:54:18.688Z,21.50
2017-10-20T01:56:47.116Z,21.17
2017-10-20T01:59:16.042Z,20.60
2017-10-20T02:01:44.470Z,18.90
2017-10-20T02:04:12.866Z,20.00
2017-10-20T02:06:41.285Z,19.47
2017-10-20T02:09:09.646Z,18.80
2017-10-20T02:11:38.052Z,19.77
2017-10-20T02:14:07.530Z,18.90
2017-10-20T02:16:36.194Z,16.70
2017-10-20T02:19:04.582Z,18.77
2017-10-20T02:21:33.354Z,19.07
2017-10-20T02:24:01.784Z,17.60
2017-10-20T02:26:30.982Z,19.17
2017-10-20T02:29:00.178Z,18.53
2017-10-20T02:31:29.738Z,18.07
2017-10-20T02:33:58.124Z,17.57
2017-10-20T02:36:26.543Z,18.83
2017-10-20T02:38:55.693Z,17.97
2017-10-20T02:41:24.129Z,19.13
2017-10-20T02:43:52.606Z,16.97
2017-10-20T02:46:20.985Z,19.20
2017-10-20T02:48:49.382Z,18.73
2017-10-20T02:51:17.874Z,19.13
2017-10-20T02:53:46.259Z,17.83
2017-10-20T02:56:14.638Z,18.67
2017-10-20T02:58:43.049Z,19.17
2017-10-20T03:01:11.441Z,17.67
2017-10-20T03:03:39.856Z,19.30
2017-10-20T03:06:08.330Z,20.97
2017-10-20T03:08:36.722Z,20.63
2017-10-20T03:11:05.102Z,19.70
2017-10-20T03:13:33.853Z,19.47
2017-10-20T03:16:02.979Z,20.37
2017-10-20T03:18:31.354Z,20.90
2017-10-20T03:20:59.763Z,20.47
2017-10-20T03:23:28.142Z,19.63
2017-10-20T03:25:56.535Z,17.80
2017-10-20T03:28:24.944Z,18.73
2017-10-20T03:30:53.391Z,19.93
2017-10-20T03:33:22.148Z,22.73
2017-10-20T03:35:50.926Z,21.40
2017-10-20T03:38:19.315Z,21.90
2017-10-20T03:40:47.679Z,19.93
2017-10-20T03:43:16.124Z,21.40
2017-10-20T03:45:44.520Z,20.13
2017-10-20T03:48:13.649Z,19.87
2017-10-20T03:50:42.066Z,17.90
2017-10-20T03:53:10.466Z,18.50
2017-10-20T03:55:38.903Z,19.90
2017-10-20T03:58:07.343Z,19.83
2017-10-20T04:00:36.472Z,20.10
2017-10-20T04:03:04.849Z,19.13
2017-10-20T04:05:33.287Z,21.37
2017-10-20T04:08:02.521Z,19.80
2017-10-20T04:10:30.989Z,19.53
2017-10-20T04:12:59.494Z,18.37
2017-10-20T04:15:27.927Z,20.73
2017-10-20T04:17:56.320Z,20.60
2017-10-20T04:20:24.915Z,18.43
2017-10-20T04:22:53.284Z,19.67
2017-10-20T04:25:21.655Z,17.47
2017-10-20T04:27:51.031Z,19.03
2017-10-20T04:30:19.407Z,21.20
2017-10-20T04:32:47.820Z,18.10
2017-10-20T04:35:16.576Z,18.80
2017-10-20T04:37:44.945Z,20.00
2017-10-20T04:40:13.327Z,19.13
2017-10-20T04:42:41.919Z,19.60
2017-10-20T04:45:11.290Z,19.33
2017-10-20T04:47:39.648Z,20.30
2017-10-20T04:50:08.292Z,19.07
2017-10-20T04:52:37.499Z,19.23
2017-10-20T04:55:06.636Z,18.63
2017-10-20T04:57:35.250Z,19.23
2017-10-20T05:00:03.684Z,18.40
2017-10-20T05:02:32.049Z,17.00
2017-10-20T05:05:00.796Z,14.67
2017-10-20T05:07:29.173Z,18.57
2017-10-20T05:09:57.603Z,19.77
2017-10-20T05:12:26.820Z,18.80
2017-10-20T05:14:55.185Z,21.97
2017-10-20T05:17:23.555Z,23.03
2017-10-20T05:19:51.951Z,20.77
2017-10-20T05:22:20.349Z,22.80
2017-10-20T05:24:48.711Z,21.77
2017-10-20T05:27:17.346Z,19.23
2017-10-20T05:29:46.481Z,21.43
2017-10-20T05:32:14.864Z,20.47
2017-10-20T05:34:43.350Z,19.80
2017-10-20T05:37:12.173Z,21.07
2017-10-20T05:39:40.558Z,18.93
2017-10-20T05:42:09.051Z,21.07
2017-10-20T05:44:37.527Z,19.20
2017-10-20T05:47:05.925Z,19.07
2017-10-20T05:49:35.175Z,19.50
2017-10-20T05:52:03.532Z,17.50
2017-10-20T05:54:31.933Z,16.80
2017-10-20T05:57:00.664Z,18.40
2017-10-20T05:59:30.004Z,18.40
2017-10-20T06:01:58.380Z,20.30
2017-10-20T06:04:26.817Z,20.93
2017-10-20T06:06:55.991Z,18.03
2017-10-20T06:09:25.196Z,17.80
2017-10-20T06:11:53.600Z,17.40
2017-10-20T06:14:22.754Z,18.47
2017-10-20T06:16:51.152Z,17.90
2017-10-20T06:19:19.596Z,18.03
2017-10-20T06:21:47.965Z,16.83
2017-10-20T06:24:16.374Z,19.20
2017-10-20T06:26:45.066Z,18.20
2017-10-20T06:29:13.453Z,18.90
2017-10-20T06:31:41.842Z,19.60
2017-10-20T06:34:10.253Z,17.57
2017-10-20T06:36:39.446Z,17.77
2017-10-20T06:39:08.800Z,18.07
2017-10-20T06:41:37.380Z,19.47
2017-10-20T06:44:05.811Z,17.43
2017-10-20T06:46:34.250Z,19.13
2017-10-20T06:49:02.825Z,19.33
2017-10-20T06:51:31.295Z,18.90
2017-10-20T06:53:59.708Z,18.53
2017-10-20T06:56:28.486Z,19.83
2017-10-20T06:58:56.869Z,19.00
2017-10-20T07:01:25.287Z,17.90
2017-10-20T07:03:54.719Z,18.67
2017-10-20T07:06:23.144Z,18.10
2017-10-20T07:08:51.591Z,19.30
2017-10-20T07:11:20.031Z,18.90
2017-10-20T07:13:48.792Z,19.17
2017-10-20T07:16:17.244Z,19.07
2017-10-20T07:18:45.834Z,20.20
2017-10-20T07:21:14.240Z,18.17
2017-10-20T07:23:43.434Z,19.13
2017-10-20T07:26:11.912Z,18.50
2017-10-20T07:28:41.097Z,20.40
2017-10-20T07:31:09.530Z,20.60
2017-10-20T07:33:38.049Z,21.67
2017-10-20T07:36:06.483Z,20.13
2017-10-20T07:38:35.104Z,19.37
2017-10-20T07:41:04.316Z,19.73
2017-10-20T07:43:33.576Z,15.70
2017-10-20T07:46:02.027Z,18.07
2017-10-20T07:48:31.428Z,18.40
2017-10-20T07:51:00.619Z,16.07
2017-10-20T07:53:29.858Z,18.80
2017-10-20T07:55:59.253Z,17.43
2017-10-20T07:58:27.625Z,20.33
2017-10-20T08:00:56.024Z,21.47
2017-10-20T08:03:26.105Z,20.30
2017-10-20T08:05:55.924Z,23.17
2017-10-20T08:08:25.076Z,20.70
2017-10-20T08:10:53.493Z,21.27
2017-10-20T08:13:21.923Z,20.57
2017-10-20T08:15:50.363Z,20.80
2017-10-20T08:18:20.040Z,22.10
2017-10-20T08:20:48.447Z,20.73
2017-10-20T08:23:17.662Z,20.80
2017-10-20T08:25:46.936Z,21.00
2017-10-20T08:28:18.030Z,21.10
2017-10-20T08:30:46.407Z,23.10
2017-10-20T08:33:14.902Z,26.07
2017-10-20T08:35:44.562Z,23.73
2017-10-20T08:38:14.757Z,23.50
2017-10-20T08:40:45.255Z,24.33
2017-10-20T08:43:14.670Z,26.50
2017-10-20T08:45:44.097Z,24.20
2017-10-20T08:48:12.704Z,24.67
2017-10-20T08:50:41.530Z,24.30
2017-10-20T08:53:11.174Z,22.47
2017-10-20T08:55:39.827Z,22.50
2017-10-20T08:58:08.279Z,25.33
2017-10-20T09:00:37.636Z,23.20
2017-10-20T09:03:06.220Z,26.03
2017-10-20T09:05:35.466Z,27.63
2017-10-20T09:08:04.838Z,26.97
2017-10-20T09:10:34.002Z,27.43
2017-10-20T09:13:03.676Z,26.43
2017-10-20T09:15:32.076Z,28.83
2017-10-20T09:18:00.705Z,29.47
2017-10-20T09:20:30.100Z,25.80
2017-10-20T09:22:59.307Z,24.33
2017-10-20T09:25:28.704Z,22.53
2017-10-20T09:27:57.868Z,27.63
2017-10-20T09:30:26.464Z,26.60
2017-10-20T09:32:56.812Z,26.07
2017-10-20T09:35:26.969Z,25.13
2017-10-20T09:37:55.995Z,25.07
2017-10-20T09:40:24.479Z,23.17
2017-10-20T09:42:53.139Z,24.97
2017-10-20T09:45:22.186Z,21.57
2017-10-20T09:47:51.757Z,22.90
2017-10-20T09:50:20.659Z,24.60
2017-10-20T09:52:49.104Z,21.73
2017-10-20T09:55:17.597Z,20.87
2017-10-20T09:57:46.924Z,19.17
2017-10-20T10:00:15.434Z,18.80
2017-10-20T10:02:45.408Z,17.23
2017-10-20T10:05:13.854Z,16.17
2017-10-20T10:07:43.454Z,17.90
2017-10-20T10:10:12.341Z,15.17
2017-10-20T10:12:40.834Z,17.00
2017-10-20T10:15:09.259Z,12.73
2017-10-20T10:17:38.134Z,15.10
2017-10-20T10:20:06.623Z,13.07
2017-10-20T10:22:35.841Z,14.80
2017-10-20T10:25:04.324Z,17.30
2017-10-20T10:27:32.748Z,18.17
2017-10-20T10:30:01.240Z,15.87
2017-10-20T10:32:30.697Z,16.23
2017-10-20T10:35:00.006Z,15.00
2017-10-20T10:37:29.159Z,15.70
2017-10-20T10:39:57.645Z,16.00
2017-10-20T10:42:26.793Z,14.90
2017-10-20T10:44:56.453Z,16.30
2017-10-20T10:47:25.786Z,18.03
2017-10-20T10:49:55.016Z,15.20
2017-10-20T10:52:24.298Z,13.80
2017-10-20T10:57:28.176Z,13.40
2017-10-20T10:59:56.742Z,11.80
2017-10-20T11:02:25.175Z,12.27
2017-10-20T11:04:55.134Z,12.87
2017-10-20T11:07:37.476Z,15.00
2017-10-20T11:10:17.607Z,12.30
2017-10-20T11:12:46.821Z,15.03
2017-10-20T11:15:15.325Z,14.13
2017-10-20T11:17:44.025Z,15.40
2017-10-20T11:20:16.896Z,15.90
2017-10-20T11:22:46.072Z,11.60
2017-10-20T11:25:16.496Z,11.23
2017-10-20T11:27:46.194Z,13.20
2017-10-20T11:30:15.407Z,10.47
2017-10-20T11:32:45.835Z,13.40
2017-10-20T11:35:15.783Z,13.10
2017-10-20T11:37:45.324Z,13.97
2017-10-20T11:40:14.611Z,13.70
2017-10-20T11:42:43.049Z,12.67
2017-10-20T11:45:12.184Z,13.13
2017-10-20T11:47:40.962Z,11.20
2017-10-20T11:50:10.408Z,9.40
2017-10-20T11:52:38.819Z,10.17
2017-10-20T11:55:08.227Z,13.47
2017-10-20T11:57:38.245Z,13.30
2017-10-20T12:00:07.613Z,6.20
2017-10-20T12:02:36.201Z,8.93
2017-10-20T12:05:04.842Z,4.00
2017-10-20T12:07:35.455Z,3.77
2017-10-20T12:10:05.039Z,4.00
2017-10-20T12:12:33.563Z,3.00
2017-10-20T12:15:04.244Z,2.30
2017-10-20T12:17:34.606Z,3.10
2017-10-20T12:20:03.048Z,2.30
2017-10-20T12:22:31.450Z,2.30
2017-10-20T12:25:00.724Z,2.57
2017-10-20T12:27:32.395Z,2.70
2017-10-20T12:30:02.024Z,2.70
2017-10-20T12:32:35.140Z,1.40
2017-10-20T12:35:03.973Z,1.70
2017-10-20T12:37:32.469Z,1.70
2017-10-20T12:40:01.846Z,1.60
2017-10-20T12:42:31.668Z,1.00
2017-10-20T12:45:00.900Z,1.30
2017-10-20T12:47:29.272Z,1.47
2017-10-20T12:49:58.957Z,0.80
2017-10-20T12:52:28.131Z,1.03
2017-10-20T12:54:57.487Z,0.50
2017-10-20T12:57:26.131Z,1.33
2017-10-20T12:59:55.361Z,1.00
2017-10-20T13:02:25.420Z,0.87
2017-10-20T13:04:54.241Z,0.90
2017-10-20T13:07:23.595Z,1.00
2017-10-20T13:09:52.089Z,0.80
2017-10-20T13:12:21.168Z,1.47
2017-10-20T13:14:49.633Z,0.73
2017-10-20T13:17:18.306Z,1.33
2017-10-20T13:19:47.797Z,1.40
2017-10-20T13:22:16.385Z,1.23
2017-10-20T13:24:46.374Z,0.77
2017-10-20T13:27:16.268Z,0.43
2017-10-20T13:29:45.143Z,0.50
2017-10-20T13:32:14.409Z,0.90
2017-10-20T13:34:43.150Z,0.50
2017-10-20T13:37:11.542Z,0.77
2017-10-20T13:39:39.942Z,0.50
2017-10-20T13:42:09.130Z,0.70
2017-10-20T13:44:37.634Z,0.60
2017-10-20T13:47:06.905Z,0.67
2017-10-20T13:49:36.406Z,0.43
2017-10-20T13:52:04.991Z,0.50
2017-10-20T13:54:37.116Z,0.43
2017-10-20T13:57:06.128Z,0.60
2017-10-20T13:59:34.532Z,0.30
2017-10-20T14:02:03.164Z,0.90
2017-10-20T14:04:31.681Z,0.53
2017-10-20T14:07:01.012Z,0.90
2017-10-20T14:09:30.321Z,1.03
2017-10-20T14:11:58.945Z,0.80
2017-10-20T14:14:27.321Z,0.87
2017-10-20T14:16:57.026Z,0.63
2017-10-20T14:19:25.664Z,0.57
2017-10-20T14:21:55.250Z,1.10
2017-10-20T14:24:25.064Z,0.50
2017-10-20T14:26:53.527Z,1.40
2017-10-20T14:29:21.910Z,0.40
2017-10-20T14:31:51.412Z,0.63
2017-10-20T14:34:20.067Z,0.50
2017-10-20T14:36:48.447Z,0.77
2017-10-20T14:39:16.929Z,0.60
2017-10-20T14:41:46.377Z,0.80
2017-10-20T14:44:17.286Z,1.10
2017-10-20T14:46:46.350Z,0.63
2017-10-20T14:49:15.621Z,0.87
2017-10-20T14:51:44.792Z,0.70
2017-10-20T14:54:13.563Z,0.80
2017-10-20T14:56:45.267Z,0.93
2017-10-20T14:59:17.003Z,0.77
2017-10-20T15:01:49.754Z,0.80
2017-10-20T15:04:18.163Z,0.70
2017-10-20T15:06:46.649Z,0.77
2017-10-20T15:09:15.499Z,1.47
2017-10-20T15:11:45.740Z,1.30
2017-10-20T15:14:14.181Z,1.43
2017-10-20T15:16:43.863Z,0.83
2017-10-20T15:19:12.423Z,0.70
2017-10-20T15:21:41.472Z,1.00
2017-10-20T15:24:10.666Z,0.90
2017-10-20T15:26:39.913Z,0.50
2017-10-20T15:29:09.286Z,0.83
2017-10-20T15:31:37.999Z,1.10
2017-10-20T15:34:06.606Z,1.07
2017-10-20T15:36:35.050Z,1.07
2017-10-20T15:39:03.700Z,0.83
2017-10-20T15:41:32.127Z,0.87
2017-10-20T15:44:00.652Z,0.87
2017-10-20T15:46:29.284Z,0.73
2017-10-20T15:48:58.515Z,0.83
2017-10-20T15:51:26.923Z,0.90
2017-10-20T15:53:57.672Z,0.60
2017-10-20T15:56:26.669Z,0.70
2017-10-20T15:58:56.459Z,1.47
2017-10-20T16:01:25.862Z,0.90
2017-10-20T16:03:54.588Z,0.60
2017-10-20T16:06:23.467Z,1.00
2017-10-20T16:08:52.169Z,1.00
2017-10-20T16:11:20.662Z,1.23
2017-10-20T16:13:49.063Z,0.80
2017-10-20T16:16:18.369Z,1.10
2017-10-20T16:18:46.820Z,1.07
2017-10-20T16:21:15.257Z,1.20
2017-10-20T16:23:44.267Z,0.90
2017-10-20T16:26:13.657Z,1.20
2017-10-20T16:28:42.085Z,1.27
2017-10-20T16:31:11.432Z,1.63
2017-10-20T16:33:40.877Z,1.10
2017-10-20T16:36:09.300Z,0.80
2017-10-20T16:38:39.698Z,2.63
2017-10-20T16:41:08.157Z,0.90
2017-10-20T16:43:36.612Z,1.30
2017-10-20T16:46:08.188Z,1.30
2017-10-20T16:48:36.740Z,2.03
2017-10-20T16:51:05.322Z,1.80
2017-10-20T16:53:35.688Z,1.77
2017-10-20T16:56:04.129Z,1.60
2017-10-20T16:58:33.758Z,1.53
2017-10-20T17:01:02.193Z,1.70
2017-10-20T17:03:30.568Z,1.70
2017-10-20T17:05:58.957Z,1.60
2017-10-20T17:08:28.142Z,1.37
2017-10-20T17:10:56.563Z,1.67
2017-10-20T17:13:24.961Z,1.87
2017-10-20T17:15:53.369Z,2.50
2017-10-20T17:18:21.757Z,2.80
2017-10-20T17:20:50.144Z,2.40
2017-10-20T17:23:18.646Z,2.63
2017-10-20T17:25:47.788Z,2.57
2017-10-20T17:28:16.173Z,2.90
2017-10-20T17:30:44.656Z,1.70
2017-10-20T17:33:13.047Z,1.87
2017-10-20T17:35:41.435Z,1.73
2017-10-20T17:38:09.834Z,1.83
2017-10-20T17:40:38.222Z,1.87
2017-10-20T17:43:07.511Z,2.30
2017-10-20T17:45:40.266Z,2.33
2017-10-20T17:48:08.754Z,1.90
2017-10-20T17:50:41.131Z,2.37
2017-10-20T17:53:09.928Z,2.20
2017-10-20T17:55:38.323Z,1.97
2017-10-20T17:58:06.952Z,1.80
2017-10-20T18:00:35.542Z,1.97
2017-10-20T18:03:03.921Z,2.30
2017-10-20T18:05:32.504Z,2.03
2017-10-20T18:08:00.909Z,2.50
2017-10-20T18:10:29.327Z,3.60
2017-10-20T18:12:58.060Z,3.50
2017-10-20T18:15:26.496Z,2.93
2017-10-20T18:17:55.493Z,3.10
2017-10-20T18:20:24.037Z,2.63
2017-10-20T18:22:52.460Z,3.10
2017-10-20T18:25:20.913Z,3.00
2017-10-20T18:27:49.546Z,2.77
2017-10-20T18:30:17.906Z,2.00
2017-10-20T18:32:46.287Z,2.40
2017-10-20T18:35:15.455Z,3.10
2017-10-20T18:37:44.858Z,1.97
2017-10-20T18:40:14.550Z,1.30
2017-10-20T18:42:43.079Z,2.00
2017-10-20T18:45:12.550Z,2.00
2017-10-20T18:47:41.096Z,1.50
2017-10-20T18:50:09.922Z,1.80
2017-10-20T18:52:39.084Z,2.30
2017-10-20T18:55:07.462Z,2.70
2017-10-20T18:57:36.308Z,2.20
2017-10-20T19:00:05.503Z,2.37
2017-10-20T19:02:34.201Z,2.40
2017-10-20T19:05:02.639Z,2.90
2017-10-20T19:07:31.805Z,2.37
2017-10-20T19:10:00.193Z,1.70
2017-10-20T19:12:28.615Z,2.70
2017-10-20T19:14:57.338Z,2.87
2017-10-20T19:17:25.719Z,3.17
2017-10-20T19:19:54.158Z,3.07
2017-10-20T19:22:22.564Z,2.70
2017-10-20T19:24:50.965Z,3.17
2017-10-20T19:27:19.704Z,2.90
2017-10-20T19:29:48.077Z,3.10
2017-10-20T19:32:16.440Z,3.13
2017-10-20T19:34:44.868Z,3.13
2017-10-20T19:37:13.255Z,1.97
2017-10-20T19:39:44.812Z,2.87
2017-10-20T19:42:13.213Z,2.70
2017-10-20T19:44:43.555Z,1.90
2017-10-20T19:47:12.769Z,2.63
2017-10-20T19:49:42.104Z,2.70
2017-10-20T19:52:10.496Z,3.03
2017-10-20T19:54:38.914Z,1.80
2017-10-20T19:57:08.216Z,2.70
2017-10-20T19:59:36.593Z,2.00
2017-10-20T20:02:07.537Z,2.77
2017-10-20T20:04:36.890Z,2.57
2017-10-20T20:07:05.621Z,2.73
2017-10-20T20:09:34.214Z,2.50
2017-10-20T20:12:03.700Z,2.47
2017-10-20T20:14:33.667Z,2.87
2017-10-20T20:17:02.213Z,4.77
2017-10-20T20:19:31.509Z,2.67
2017-10-20T20:22:00.709Z,2.77
2017-10-20T20:24:34.053Z,3.50
2017-10-20T20:27:02.523Z,2.80
2017-10-20T20:29:30.958Z,3.50
2017-10-20T20:32:15.114Z,3.50
2017-10-20T20:34:44.318Z,2.93
2017-10-20T20:37:13.509Z,2.97
2017-10-20T20:39:42.693Z,3.13
2017-10-20T20:42:11.065Z,3.30
2017-10-20T20:44:40.987Z,4.03
2017-10-20T20:47:10.798Z,4.30
2017-10-20T20:49:39.310Z,3.30
2017-10-20T20:52:07.742Z,2.57
2017-10-20T20:54:36.154Z,3.10
2017-10-20T20:57:05.367Z,3.47
2017-10-20T20:59:33.797Z,2.90
2017-10-20T21:02:04.254Z,2.30
2017-10-20T21:04:35.277Z,2.10
2017-10-20T21:07:04.879Z,2.50
2017-10-20T21:09:36.246Z,2.47
2017-10-20T21:12:05.457Z,2.60
2017-10-20T21:14:36.707Z,2.17
2017-10-20T21:17:05.860Z,2.30
2017-10-20T21:19:34.422Z,2.43
2017-10-20T21:22:02.818Z,2.40
2017-10-20T21:24:31.275Z,3.13
2017-10-20T21:27:00.242Z,3.93
2017-10-20T21:29:29.783Z,3.30
2017-10-20T21:31:58.151Z,3.00
2017-10-20T21:34:26.908Z,3.53
2017-10-20T21:36:55.292Z,2.93
2017-10-20T21:39:24.429Z,2.70
2017-10-20T21:41:52.825Z,3.20
2017-10-20T21:44:21.176Z,3.03
2017-10-20T21:46:50.338Z,3.60
2017-10-20T21:49:18.839Z,3.10
2017-10-20T21:51:47.198Z,3.00
2017-10-20T21:54:15.669Z,3.53
2017-10-20T21:56:44.863Z,2.80
2017-10-20T21:59:13.596Z,2.90
2017-10-20T22:01:41.973Z,3.43
2017-10-20T22:04:10.540Z,3.90
2017-10-20T22:06:38.918Z,2.80
2017-10-20T22:09:07.374Z,3.90
2017-10-20T22:11:36.545Z,3.60
2017-10-20T22:14:06.265Z,3.10
2017-10-20T22:16:34.609Z,3.60
2017-10-20T22:19:03.034Z,4.13
2017-10-20T22:21:32.170Z,3.43
2017-10-20T22:24:00.734Z,4.07
2017-10-20T22:26:29.183Z,3.10
2017-10-20T22:28:57.556Z,3.20
2017-10-20T22:31:26.516Z,2.70
2017-10-20T22:33:55.046Z,3.40
2017-10-20T22:36:23.443Z,2.80
2017-10-20T22:38:51.883Z,3.00
2017-10-20T22:41:20.367Z,3.33
2017-10-20T22:43:48.787Z,3.10
2017-10-20T22:46:17.150Z,2.50
2017-10-20T22:48:46.518Z,2.97
2017-10-20T22:51:16.471Z,2.77
2017-10-20T22:53:45.105Z,2.43
2017-10-20T22:56:14.860Z,2.80
2017-10-20T22:58:44.043Z,2.93
2017-10-20T23:01:12.399Z,2.83
2017-10-20T23:03:42.421Z,2.50
2017-10-20T23:06:10.769Z,3.50
2017-10-20T23:08:39.118Z,3.27
2017-10-20T23:11:08.652Z,3.53
2017-10-20T23:13:38.119Z,3.77
2017-10-20T23:16:06.550Z,3.17
2017-10-20T23:18:35.297Z,3.07
2017-10-20T23:21:04.427Z,3.40
2017-10-20T23:23:32.981Z,3.60
2017-10-20T23:26:02.439Z,3.50
2017-10-20T23:28:31.128Z,3.03
2017-10-20T23:30:59.508Z,2.90
2017-10-20T23:33:28.569Z,3.67
2017-10-20T23:35:57.024Z,3.80
2017-10-20T23:38:27.216Z,4.10
2017-10-20T23:40:55.622Z,4.13
2017-10-20T23:43:24.750Z,3.73
2017-10-20T23:45:53.133Z,3.60
2017-10-20T23:48:23.511Z,3.57
2017-10-20T23:50:52.793Z,4.20
2017-10-20T23:53:21.163Z,3.73
2017-10-20T23:55:49.544Z,4.70
2017-10-20T23:58:17.905Z,2.80
